createdAt,value
2022-08-05T00:01:27.661Z,23.18
2022-08-05T00:06:33.450Z,22.85
2022-08-05T00:11:48.393Z,22.93
2022-08-05T00:16:53.959Z,22.80
2022-08-05T00:21:57.152Z,22.81
2022-08-05T00:27:04.558Z,22.83
2022-08-05T00:32:15.076Z,22.66
2022-08-05T00:37:18.295Z,22.64
2022-08-05T00:42:32.941Z,22.66
2022-08-05T00:47:56.234Z,22.57
2022-08-05T00:52:59.031Z,22.49
2022-08-05T00:58:11.100Z,22.34
2022-08-05T01:03:22.653Z,22.38
2022-08-05T01:08:42.059Z,22.30
2022-08-05T01:13:59.794Z,22.25
2022-08-05T01:19:14.206Z,21.77
2022-08-05T01:24:32.473Z,22.00
2022-08-05T01:29:43.063Z,21.85
2022-08-05T01:34:51.630Z,21.79
2022-08-05T01:39:59.157Z,21.78
2022-08-05T01:45:08.157Z,21.73
2022-08-05T01:50:17.260Z,21.78
2022-08-05T01:55:23.684Z,21.77
2022-08-05T02:00:31.103Z,21.81
2022-08-05T02:05:37.736Z,21.67
2022-08-05T02:10:52.475Z,21.39
2022-08-05T02:16:04.012Z,21.38
2022-08-05T02:21:14.986Z,21.40
2022-08-05T02:26:26.556Z,21.48
2022-08-05T02:31:34.769Z,21.42
2022-08-05T02:36:42.520Z,21.38
2022-08-05T02:42:01.026Z,21.21
2022-08-05T02:47:09.130Z,21.30
2022-08-05T02:52:29.590Z,21.30
2022-08-05T02:58:12.349Z,21.35
2022-08-05T03:03:00.068Z,21.17
2022-08-05T03:08:08.545Z,21.16
2022-08-05T03:13:16.889Z,21.10
2022-08-05T03:18:29.801Z,21.08
2022-08-05T03:23:34.329Z,21.03
2022-08-05T03:28:38.473Z,21.02
2022-08-05T03:33:51.481Z,21.04
2022-08-05T03:38:56.316Z,21.01
2022-08-05T03:44:10.262Z,21.16
2022-08-05T03:49:15.867Z,21.15
2022-08-05T03:55:06.918Z,21.23
2022-08-05T03:59:54.666Z,20.94
2022-08-05T04:05:01.702Z,21.03
2022-08-05T04:10:05.186Z,21.21
2022-08-05T04:15:09.051Z,21.29
2022-08-05T04:20:22.121Z,21.49
2022-08-05T04:25:57.651Z,21.63
2022-08-05T04:30:49.883Z,22.54
2022-08-05T04:36:15.939Z,23.48
2022-08-05T04:41:17.193Z,24.38
2022-08-05T04:46:27.837Z,25.50
2022-08-05T04:51:33.032Z,26.19
2022-08-05T04:56:37.845Z,26.49
2022-08-05T05:02:06.954Z,25.95
2022-08-05T05:07:09.331Z,26.54
2022-08-05T05:12:12.844Z,27.10
2022-08-05T05:17:19.872Z,27.14
2022-08-05T05:22:27.995Z,25.75
2022-08-05T05:27:44.348Z,26.69
2022-08-05T05:32:49.613Z,26.14
2022-08-05T05:37:59.976Z,26.96
2022-08-05T05:43:05.015Z,26.19
2022-08-05T05:48:11.601Z,26.38
2022-08-05T05:53:21.587Z,26.58
2022-08-05T05:58:30.209Z,27.64
2022-08-05T06:03:54.068Z,28.31
2022-08-05T06:08:59.610Z,27.47
2022-08-05T06:14:02.847Z,28.03
2022-08-05T06:19:07.438Z,26.84
2022-08-05T06:24:14.669Z,27.97
2022-08-05T06:29:45.376Z,28.95
2022-08-05T06:34:41.454Z,29.13
2022-08-05T06:39:45.887Z,29.49
2022-08-05T06:44:49.368Z,28.85
2022-08-05T06:50:00.026Z,29.42
2022-08-05T06:55:07.437Z,29.75
2022-08-05T07:00:11.933Z,29.72
2022-08-05T07:05:19.567Z,30.50
2022-08-05T07:10:32.423Z,29.50
2022-08-05T07:16:00.983Z,30.20
2022-08-05T07:21:10.847Z,28.26
2022-08-05T07:26:18.405Z,29.85
2022-08-05T07:31:53.953Z,29.52
2022-08-05T07:36:48.750Z,29.32
2022-08-05T07:42:07.960Z,28.95
2022-08-05T07:47:14.868Z,29.74
2022-08-05T07:52:17.908Z,30.86
2022-08-05T07:57:42.151Z,30.02
2022-08-05T08:03:13.708Z,28.25
2022-08-05T08:08:12.470Z,28.79
2022-08-05T08:13:21.855Z,27.47
2022-08-05T08:18:31.761Z,29.03
2022-08-05T08:24:03.753Z,29.13
2022-08-05T08:29:21.521Z,27.12
2022-08-05T08:34:30.521Z,27.84
2022-08-05T08:39:37.377Z,30.01
2022-08-05T08:45:22.720Z,30.10
2022-08-05T08:50:30.488Z,28.32
2022-08-05T08:56:03.691Z,29.93
2022-08-05T09:01:01.251Z,29.86
2022-08-05T09:06:08.470Z,29.03
2022-08-05T09:11:15.079Z,29.99
2022-08-05T09:16:19.591Z,30.42
2022-08-05T09:22:22.720Z,31.65
2022-08-05T09:26:52.606Z,28.83
2022-08-05T09:32:41.099Z,30.93
2022-08-05T09:38:16.163Z,28.88
2022-08-05T09:42:53.930Z,30.01
2022-08-05T09:47:58.386Z,28.92
2022-08-05T09:53:01.779Z,31.35
2022-08-05T09:58:12.097Z,31.28
2022-08-05T10:03:16.469Z,32.12
2022-08-05T10:08:37.365Z,28.55
2022-08-05T10:13:47.792Z,27.65
2022-08-05T10:18:55.517Z,28.25
2022-08-05T10:24:01.327Z,28.86
2022-08-05T10:29:05.468Z,28.65
2022-08-05T10:34:10.841Z,29.45
2022-08-05T10:39:25.007Z,30.74
2022-08-05T10:44:45.676Z,28.42
2022-08-05T10:50:32.590Z,29.87
2022-08-05T10:56:03.401Z,31.55
2022-08-05T11:01:03.179Z,32.43
2022-08-05T11:06:16.115Z,32.50
2022-08-05T11:11:52.083Z,30.67
2022-08-05T11:17:59.193Z,31.92
2022-08-05T11:22:58.046Z,31.34
2022-08-05T11:28:44.267Z,30.38
2022-08-05T11:33:55.783Z,29.70
2022-08-05T11:39:03.218Z,29.68
2022-08-05T11:44:10.662Z,31.29
2022-08-05T11:49:16.785Z,31.66
2022-08-05T11:54:33.355Z,32.81
2022-08-05T11:59:49.545Z,32.96
2022-08-05T12:04:59.581Z,31.68
2022-08-05T12:10:09.565Z,31.84
2022-08-05T12:15:21.013Z,31.49
2022-08-05T12:20:44.378Z,32.80
2022-08-05T12:25:56.851Z,33.53
2022-08-05T12:31:02.384Z,31.50
2022-08-05T12:36:08.726Z,32.23
2022-08-05T12:41:16.250Z,32.05
2022-08-05T12:46:28.971Z,32.43
2022-08-05T12:52:12.686Z,33.03
2022-08-05T12:56:59.531Z,33.51
2022-08-05T13:02:07.760Z,32.24
2022-08-05T13:07:15.923Z,31.55
2022-08-05T13:12:28.500Z,32.96
2022-08-05T13:17:42.029Z,33.83
2022-08-05T13:22:50.276Z,34.19
2022-08-05T13:27:56.176Z,33.11
2022-08-05T13:33:01.235Z,33.23
2022-08-05T13:38:06.000Z,32.39
2022-08-05T13:43:11.956Z,32.34
2022-08-05T13:48:57.963Z,32.35
2022-08-05T13:53:48.013Z,31.32
2022-08-05T13:58:53.854Z,32.33
2022-08-05T14:04:14.569Z,32.31
2022-08-05T14:09:18.220Z,32.73
2022-08-05T14:14:29.604Z,33.67
2022-08-05T14:19:54.202Z,32.36
2022-08-05T14:24:59.733Z,32.27
2022-08-05T14:30:04.815Z,31.83
2022-08-05T14:35:23.610Z,32.59
2022-08-05T14:40:40.768Z,32.19
2022-08-05T14:45:48.451Z,31.91
2022-08-05T14:50:51.437Z,32.40
2022-08-05T14:55:55.964Z,32.97
2022-08-05T15:01:00.494Z,32.75
2022-08-05T15:06:07.803Z,32.90
2022-08-05T15:11:16.731Z,31.61
2022-08-05T15:16:21.138Z,31.80
2022-08-05T15:21:25.338Z,31.55
2022-08-05T15:26:33.449Z,31.94
2022-08-05T15:31:37.801Z,31.81
2022-08-05T15:36:40.855Z,31.57
2022-08-05T15:41:56.337Z,31.44
2022-08-05T15:47:04.319Z,30.83
2022-08-05T15:52:16.369Z,30.91
2022-08-05T15:57:33.210Z,31.08
2022-08-05T16:02:39.319Z,31.28
2022-08-05T16:07:46.249Z,31.33
2022-08-05T16:12:50.603Z,31.13
2022-08-05T16:17:57.660Z,30.70
2022-08-05T16:23:01.292Z,31.12
2022-08-05T16:28:05.966Z,30.92
2022-08-05T16:33:10.918Z,31.03
2022-08-05T16:38:18.880Z,31.01
2022-08-05T16:43:31.423Z,30.48
2022-08-05T16:48:36.263Z,30.06
2022-08-05T16:54:06.017Z,30.31
2022-08-05T16:59:08.115Z,30.35
2022-08-05T17:04:13.242Z,29.70
2022-08-05T17:09:18.214Z,29.62
2022-08-05T17:14:22.348Z,29.46
2022-08-05T17:19:39.313Z,29.32
2022-08-05T17:24:53.687Z,28.99
2022-08-05T17:30:02.549Z,29.41
2022-08-05T17:35:08.325Z,29.13
2022-08-05T17:40:18.115Z,28.87
2022-08-05T17:45:38.161Z,28.27
2022-08-05T17:50:43.253Z,26.74
2022-08-05T17:55:46.265Z,26.98
2022-08-05T18:00:50.807Z,26.62
2022-08-05T18:05:55.926Z,26.60
2022-08-05T18:11:05.028Z,25.54
2022-08-05T18:16:09.643Z,25.48
2022-08-05T18:21:19.543Z,25.30
2022-08-05T18:26:27.578Z,24.74
2022-08-05T18:31:32.938Z,23.58
2022-08-05T18:36:38.521Z,23.75
2022-08-05T18:41:56.778Z,23.73
2022-08-05T18:47:04.838Z,23.45
2022-08-05T18:52:33.233Z,21.91
2022-08-05T18:57:50.340Z,22.20
2022-08-05T19:02:57.550Z,21.67
2022-08-05T19:08:13.413Z,21.99
2022-08-05T19:13:18.391Z,21.12
2022-08-05T19:18:22.974Z,21.56
2022-08-05T19:24:06.676Z,21.68
2022-08-05T19:28:52.474Z,21.77
2022-08-05T19:33:58.486Z,21.72
2022-08-05T19:39:03.687Z,21.50
2022-08-05T19:44:13.083Z,21.70
2022-08-05T19:49:17.793Z,21.60
2022-08-05T19:54:29.409Z,21.58
2022-08-05T19:59:56.021Z,21.09
2022-08-05T20:04:58.552Z,20.92
2022-08-05T20:10:11.485Z,20.53
2022-08-05T20:15:23.342Z,20.04
2022-08-05T20:20:44.758Z,20.33
2022-08-05T20:25:49.249Z,20.64
2022-08-05T20:30:55.657Z,20.30
2022-08-05T20:35:58.772Z,19.84
2022-08-05T20:41:04.722Z,19.17
2022-08-05T20:46:18.276Z,19.34
2022-08-05T20:51:27.788Z,19.10
2022-08-05T20:56:40.181Z,19.25
2022-08-05T21:01:45.719Z,19.49
2022-08-05T21:06:48.835Z,19.60
2022-08-05T21:12:10.353Z,19.48
2022-08-05T21:17:15.445Z,18.94
2022-08-05T21:22:23.399Z,19.14
2022-08-05T21:27:29.022Z,18.85
2022-08-05T21:32:42.102Z,19.06
2022-08-05T21:37:47.438Z,18.65
2022-08-05T21:42:59.028Z,18.42
2022-08-05T21:48:02.460Z,18.22
2022-08-05T21:53:17.610Z,18.17
2022-08-05T21:58:30.860Z,17.88
2022-08-05T22:03:53.227Z,17.43
2022-08-05T22:08:56.723Z,18.12
2022-08-05T22:14:32.486Z,18.32
2022-08-05T22:20:01.089Z,17.59
2022-08-05T22:25:05.349Z,17.78
2022-08-05T22:30:22.277Z,18.09
2022-08-05T22:35:25.396Z,18.15
2022-08-05T22:40:34.159Z,18.44
2022-08-05T22:45:38.675Z,18.52
2022-08-05T22:50:46.230Z,17.90
2022-08-05T22:55:59.501Z,17.22
2022-08-05T23:01:04.394Z,16.64
2022-08-05T23:06:09.633Z,16.42
2022-08-05T23:11:13.191Z,16.64
2022-08-05T23:16:33.370Z,16.40
2022-08-05T23:21:43.133Z,16.35
2022-08-05T23:26:51.689Z,15.82
2022-08-05T23:31:56.073Z,15.91
2022-08-05T23:36:59.364Z,16.25
2022-08-05T23:42:03.642Z,16.54
2022-08-05T23:47:15.197Z,16.05
2022-08-05T23:52:29.309Z,16.02
2022-08-05T23:57:34.985Z,16.14
